createdAt,value
2019-03-30T00:01:06.938Z,162.00
2019-03-30T00:03:37.702Z,165.40
2019-03-30T00:06:07.752Z,159.87
2019-03-30T00:08:40.298Z,166.53
2019-03-30T00:11:09.986Z,175.27
2019-03-30T00:13:40.733Z,161.30
2019-03-30T00:16:10.797Z,175.20
2019-03-30T00:18:42.112Z,165.40
2019-03-30T00:21:12.057Z,162.43
2019-03-30T00:23:41.633Z,176.53
2019-03-30T00:26:11.342Z,162.83
2019-03-30T00:28:44.466Z,167.13
2019-03-30T00:31:14.229Z,166.13
2019-03-30T00:33:45.548Z,164.70
2019-03-30T00:36:17.484Z,171.10
2019-03-30T00:38:49.498Z,158.53
2019-03-30T00:41:20.190Z,164.73
2019-03-30T00:43:49.846Z,164.47
2019-03-30T00:46:20.896Z,163.57
2019-03-30T00:48:52.605Z,161.90
2019-03-30T00:51:22.589Z,181.47
2019-03-30T00:53:55.037Z,178.53
2019-03-30T00:56:24.747Z,173.67
2019-03-30T00:58:54.306Z,174.70
2019-03-30T01:01:24.061Z,178.17
2019-03-30T01:03:53.718Z,173.87
2019-03-30T01:06:24.565Z,170.93
2019-03-30T01:08:54.272Z,170.97
2019-03-30T01:11:23.922Z,171.53
2019-03-30T01:13:53.611Z,157.63
2019-03-30T01:16:26.990Z,162.47
2019-03-30T01:18:58.981Z,153.57
2019-03-30T01:21:28.555Z,162.13
2019-03-30T01:23:58.224Z,165.33
2019-03-30T01:26:27.952Z,163.70
2019-03-30T01:28:58.338Z,166.40
2019-03-30T01:31:29.774Z,156.67
2019-03-30T01:33:59.497Z,146.60
2019-03-30T01:36:30.025Z,159.43
2019-03-30T01:38:59.999Z,154.03
2019-03-30T01:41:31.255Z,164.70
2019-03-30T01:44:00.921Z,145.70
2019-03-30T01:46:30.615Z,151.67
2019-03-30T01:49:02.776Z,150.13
2019-03-30T01:51:32.749Z,135.30
2019-03-30T01:54:02.459Z,138.53
2019-03-30T01:56:32.227Z,134.83
2019-03-30T01:59:01.889Z,145.17
2019-03-30T02:01:33.030Z,142.30
2019-03-30T02:04:03.525Z,145.13
2019-03-30T02:06:34.540Z,145.20
2019-03-30T02:09:05.567Z,161.33
2019-03-30T02:11:35.200Z,172.40
2019-03-30T02:14:07.534Z,145.67
2019-03-30T02:16:37.598Z,141.17
2019-03-30T02:19:07.313Z,148.60
2019-03-30T02:21:36.967Z,150.97
2019-03-30T02:24:06.629Z,148.60
2019-03-30T02:26:37.936Z,168.60
2019-03-30T02:29:10.618Z,161.90
2019-03-30T02:31:41.348Z,178.93
2019-03-30T02:34:11.061Z,169.60
2019-03-30T02:36:41.970Z,148.37
2019-03-30T02:39:12.881Z,148.83
2019-03-30T02:41:42.534Z,149.30
2019-03-30T02:44:15.763Z,146.20
2019-03-30T02:46:45.724Z,133.87
2019-03-30T02:49:18.089Z,133.73
2019-03-30T02:51:48.003Z,122.40
2019-03-30T02:54:17.665Z,129.10
2019-03-30T02:56:47.329Z,124.67
2019-03-30T02:59:17.060Z,122.60
2019-03-30T03:01:47.542Z,123.40
2019-03-30T03:04:17.208Z,122.53
2019-03-30T03:06:49.134Z,109.37
2019-03-30T03:09:19.615Z,114.37
2019-03-30T03:11:49.411Z,112.20
2019-03-30T03:14:19.021Z,102.13
2019-03-30T03:16:49.221Z,97.13
2019-03-30T03:19:18.858Z,99.73
2019-03-30T03:21:50.091Z,92.83
2019-03-30T03:24:19.858Z,92.53
2019-03-30T03:26:49.632Z,96.80
2019-03-30T03:29:19.318Z,95.60
2019-03-30T03:31:50.788Z,90.43
2019-03-30T03:34:20.456Z,94.67
2019-03-30T03:36:50.194Z,100.20
2019-03-30T03:39:19.886Z,91.97
2019-03-30T03:41:51.069Z,98.20
2019-03-30T03:44:22.255Z,105.70
2019-03-30T03:46:52.068Z,100.87
2019-03-30T03:49:21.701Z,95.80
2019-03-30T03:51:51.434Z,101.50
2019-03-30T03:54:21.371Z,93.03
2019-03-30T03:56:52.886Z,90.43
2019-03-30T03:59:26.002Z,92.47
2019-03-30T04:01:56.775Z,92.73
2019-03-30T04:04:28.295Z,92.57
2019-03-30T04:07:01.436Z,83.87
2019-03-30T04:09:33.073Z,79.03
2019-03-30T04:12:05.937Z,81.07
2019-03-30T04:14:38.265Z,81.93
2019-03-30T04:17:08.307Z,71.40
2019-03-30T04:19:38.276Z,76.33
2019-03-30T04:22:09.175Z,69.07
2019-03-30T04:24:38.896Z,70.10
2019-03-30T04:27:09.417Z,72.40
2019-03-30T04:29:39.370Z,70.13
2019-03-30T04:32:10.229Z,59.20
2019-03-30T04:34:39.953Z,63.60
2019-03-30T04:37:09.670Z,69.97
2019-03-30T04:39:40.773Z,62.20
2019-03-30T04:42:13.989Z,69.37
2019-03-30T04:44:43.627Z,67.13
2019-03-30T04:47:15.474Z,65.90
2019-03-30T04:49:45.353Z,65.50
2019-03-30T04:52:16.490Z,72.40
2019-03-30T04:54:47.964Z,63.07
2019-03-30T04:57:17.638Z,67.40
2019-03-30T04:59:47.475Z,68.90
2019-03-30T05:02:17.088Z,64.60
2019-03-30T05:04:47.090Z,58.50
2019-03-30T05:07:19.220Z,64.03
2019-03-30T05:09:50.444Z,60.27
2019-03-30T05:12:21.503Z,65.35
2019-03-30T05:14:51.376Z,59.57
2019-03-30T05:17:21.858Z,58.93
2019-03-30T05:19:53.903Z,56.93
2019-03-30T05:22:23.519Z,62.00
2019-03-30T05:24:53.221Z,62.33
2019-03-30T05:27:22.998Z,62.10
2019-03-30T05:29:54.119Z,64.03
2019-03-30T05:32:26.656Z,63.37
2019-03-30T05:34:56.335Z,65.07
2019-03-30T05:37:27.033Z,62.87
2019-03-30T05:39:57.028Z,62.60
2019-03-30T05:42:28.547Z,66.43
2019-03-30T05:44:58.327Z,60.50
2019-03-30T05:47:27.927Z,58.13
2019-03-30T05:49:57.503Z,67.03
2019-03-30T05:52:31.929Z,68.10
2019-03-30T05:55:01.607Z,74.27
2019-03-30T05:57:31.372Z,67.93
2019-03-30T06:00:01.039Z,65.53
2019-03-30T06:02:32.772Z,68.70
2019-03-30T06:05:03.726Z,69.07
2019-03-30T06:07:39.242Z,74.97
2019-03-30T06:10:09.311Z,71.73
2019-03-30T06:12:39.227Z,68.07
2019-03-30T06:15:09.252Z,60.00
2019-03-30T06:17:39.729Z,63.00
2019-03-30T06:20:09.367Z,58.13
2019-03-30T06:22:40.388Z,64.33
2019-03-30T06:25:11.350Z,66.87
2019-03-30T06:27:40.998Z,63.57
2019-03-30T06:30:22.036Z,58.67
2019-03-30T06:32:53.238Z,68.13
2019-03-30T06:35:23.344Z,61.90
2019-03-30T06:37:56.081Z,70.07
2019-03-30T06:40:27.349Z,73.77
2019-03-30T06:42:57.076Z,79.37
2019-03-30T06:45:27.589Z,77.10
2019-03-30T06:47:57.286Z,73.93
2019-03-30T06:50:27.200Z,74.47
2019-03-30T06:52:58.596Z,71.93
2019-03-30T06:55:28.723Z,69.63
2019-03-30T06:57:59.181Z,63.13
2019-03-30T07:00:35.937Z,61.03
2019-03-30T07:03:06.719Z,60.13
2019-03-30T07:05:45.372Z,57.70
2019-03-30T07:08:18.478Z,53.60
2019-03-30T07:10:51.260Z,49.40
2019-03-30T07:13:21.218Z,51.57
2019-03-30T07:15:52.707Z,52.17
2019-03-30T07:18:22.494Z,48.50
2019-03-30T07:20:52.249Z,52.03
2019-03-30T07:23:21.904Z,48.70
2019-03-30T07:25:51.526Z,43.07
2019-03-30T07:28:21.182Z,47.03
2019-03-30T07:30:52.639Z,45.23
2019-03-30T07:33:26.608Z,46.03
2019-03-30T07:35:57.904Z,39.00
2019-03-30T07:38:27.486Z,46.10
2019-03-30T07:40:59.189Z,41.00
2019-03-30T07:43:28.888Z,44.70
2019-03-30T07:45:58.660Z,44.20
2019-03-30T07:48:28.344Z,44.50
2019-03-30T07:50:57.990Z,38.40
2019-03-30T07:53:27.713Z,39.43
2019-03-30T07:56:08.392Z,37.87
2019-03-30T07:58:29.640Z,33.37
2019-03-30T08:00:59.824Z,37.83
2019-03-30T08:03:31.523Z,37.33
2019-03-30T08:06:01.258Z,38.13
2019-03-30T08:08:30.962Z,39.77
2019-03-30T08:11:02.111Z,35.33
2019-03-30T08:13:33.795Z,36.57
2019-03-30T08:16:03.525Z,36.30
2019-03-30T08:18:34.285Z,34.73
2019-03-30T08:21:06.815Z,36.13
2019-03-30T08:23:40.534Z,38.57
2019-03-30T08:26:08.177Z,37.73
2019-03-30T08:28:37.883Z,36.00
2019-03-30T08:31:07.567Z,35.83
2019-03-30T08:33:37.369Z,36.70
2019-03-30T08:36:08.449Z,33.23
2019-03-30T08:38:38.469Z,34.83
2019-03-30T08:41:08.132Z,34.23
2019-03-30T08:43:37.788Z,37.73
2019-03-30T08:46:07.567Z,36.77
2019-03-30T08:48:37.380Z,45.13
2019-03-30T08:51:07.062Z,37.93
2019-03-30T08:53:36.802Z,39.97
2019-03-30T08:56:06.449Z,39.63
2019-03-30T08:58:37.826Z,37.30
2019-03-30T09:01:07.527Z,37.53
2019-03-30T09:03:37.179Z,42.47
2019-03-30T09:06:06.856Z,46.67
2019-03-30T09:08:36.604Z,41.13
2019-03-30T09:11:06.983Z,43.40
2019-03-30T09:13:36.912Z,48.77
2019-03-30T09:16:06.595Z,40.57
2019-03-30T09:18:37.944Z,43.93
2019-03-30T09:21:11.873Z,42.93
2019-03-30T09:23:43.859Z,43.37
2019-03-30T09:26:16.727Z,43.53
2019-03-30T09:28:49.027Z,43.37
2019-03-30T09:31:21.285Z,47.20
2019-03-30T09:33:50.923Z,47.60
2019-03-30T09:36:20.657Z,43.60
2019-03-30T09:38:50.713Z,45.53
2019-03-30T09:41:20.826Z,43.40
2019-03-30T09:43:51.495Z,39.73
2019-03-30T09:46:22.966Z,43.50
2019-03-30T09:48:53.958Z,44.17
2019-03-30T09:51:24.768Z,44.37
2019-03-30T09:53:55.175Z,46.43
2019-03-30T09:56:25.743Z,45.93
2019-03-30T09:58:56.323Z,44.63
2019-03-30T10:01:25.977Z,45.37
2019-03-30T10:03:55.630Z,45.23
2019-03-30T10:06:34.277Z,45.40
2019-03-30T10:08:57.718Z,46.57
2019-03-30T10:11:27.376Z,45.87
2019-03-30T10:13:59.116Z,46.63
2019-03-30T10:16:28.904Z,50.87
2019-03-30T10:18:58.614Z,49.33
2019-03-30T10:21:29.262Z,49.87
2019-03-30T10:23:58.942Z,47.20
2019-03-30T10:26:31.044Z,49.93
2019-03-30T10:29:00.767Z,45.50
2019-03-30T10:31:30.472Z,49.53
2019-03-30T10:34:01.571Z,46.30
2019-03-30T10:36:31.501Z,45.23
2019-03-30T10:39:01.353Z,47.17
2019-03-30T10:41:31.008Z,55.37
2019-03-30T10:44:00.665Z,49.97
2019-03-30T10:46:31.194Z,54.17
2019-03-30T10:49:02.063Z,49.30
2019-03-30T10:51:32.934Z,50.30
2019-03-30T10:54:02.623Z,51.13
2019-03-30T10:56:32.624Z,50.57
2019-03-30T10:59:02.310Z,52.83
2019-03-30T11:01:32.063Z,51.67
2019-03-30T11:04:01.714Z,55.33
2019-03-30T11:06:31.604Z,54.43
2019-03-30T11:09:02.976Z,51.50
2019-03-30T11:11:32.717Z,58.13
2019-03-30T11:14:02.362Z,52.23
2019-03-30T11:16:32.120Z,56.70
2019-03-30T11:19:01.774Z,58.60
2019-03-30T11:21:32.754Z,55.53
2019-03-30T11:24:06.493Z,54.33
2019-03-30T11:26:42.111Z,54.23
2019-03-30T11:29:11.958Z,53.30
2019-03-30T11:31:41.603Z,56.40
2019-03-30T11:34:11.558Z,55.97
2019-03-30T11:36:41.367Z,55.83
2019-03-30T11:39:11.873Z,53.00
2019-03-30T11:41:41.681Z,54.00
2019-03-30T11:44:12.430Z,54.20
2019-03-30T11:46:42.294Z,54.20
2019-03-30T11:49:11.961Z,56.80
2019-03-30T11:51:41.577Z,54.23
2019-03-30T11:54:11.362Z,53.93
2019-03-30T11:56:41.067Z,58.23
2019-03-30T11:59:10.778Z,54.70
2019-03-30T12:01:41.868Z,57.33
2019-03-30T12:04:11.781Z,56.43
2019-03-30T12:06:41.799Z,54.73
2019-03-30T12:09:11.566Z,54.87
2019-03-30T12:11:41.168Z,53.77
2019-03-30T12:14:11.002Z,51.13
2019-03-30T12:16:40.680Z,56.80
2019-03-30T12:19:10.414Z,50.57
2019-03-30T12:21:40.326Z,55.70
2019-03-30T12:24:12.398Z,50.97
2019-03-30T12:26:42.542Z,55.63
2019-03-30T12:29:12.510Z,56.03
2019-03-30T12:31:42.245Z,56.43
2019-03-30T12:34:13.214Z,57.10
2019-03-30T12:36:43.453Z,60.73
2019-03-30T12:39:13.117Z,61.40
2019-03-30T12:41:45.261Z,58.03
2019-03-30T12:44:15.167Z,52.80
2019-03-30T12:46:44.915Z,55.43
2019-03-30T12:49:14.800Z,58.37
2019-03-30T12:51:44.528Z,59.30
2019-03-30T12:54:17.105Z,58.33
2019-03-30T12:56:47.156Z,60.53
2019-03-30T12:59:18.052Z,54.93
2019-03-30T13:01:48.070Z,54.97
2019-03-30T13:04:17.735Z,61.17
2019-03-30T13:06:47.403Z,54.13
2019-03-30T13:09:18.295Z,62.27
2019-03-30T13:11:50.821Z,55.80
2019-03-30T13:14:20.508Z,61.80
2019-03-30T13:16:51.341Z,51.50
2019-03-30T13:19:20.965Z,59.10
2019-03-30T13:21:53.043Z,60.70
2019-03-30T13:24:22.451Z,49.43
2019-03-30T13:26:52.184Z,51.07
2019-03-30T13:29:21.945Z,52.23
2019-03-30T13:31:51.776Z,59.10
2019-03-30T13:34:24.122Z,55.53
2019-03-30T13:36:55.766Z,59.30
2019-03-30T13:39:27.851Z,57.40
2019-03-30T13:41:57.986Z,52.33
2019-03-30T13:44:27.647Z,56.57
2019-03-30T13:46:57.310Z,59.10
2019-03-30T13:49:29.833Z,51.57
2019-03-30T13:51:59.671Z,51.07
2019-03-30T13:54:32.574Z,50.27
2019-03-30T13:57:02.950Z,49.00
2019-03-30T13:59:32.869Z,51.67
2019-03-30T14:02:02.574Z,57.57
2019-03-30T14:04:32.219Z,56.50
2019-03-30T14:07:01.834Z,52.50
2019-03-30T14:09:31.487Z,53.30
2019-03-30T14:12:02.055Z,53.80
2019-03-30T14:14:42.282Z,53.63
2019-03-30T14:17:12.059Z,52.33
2019-03-30T14:19:44.808Z,48.90
2019-03-30T14:22:18.739Z,54.33
2019-03-30T14:24:48.445Z,46.17
2019-03-30T14:27:20.909Z,51.70
2019-03-30T14:29:54.555Z,43.87
2019-03-30T14:32:25.503Z,44.50
2019-03-30T14:34:55.211Z,49.33
2019-03-30T14:37:25.208Z,46.57
2019-03-30T14:39:56.889Z,42.97
2019-03-30T14:42:27.033Z,41.97
2019-03-30T14:44:56.759Z,42.77
2019-03-30T14:47:26.385Z,37.70
2019-03-30T14:49:56.323Z,38.10
2019-03-30T14:52:26.291Z,33.77
2019-03-30T14:54:56.025Z,41.77
2019-03-30T14:57:25.681Z,43.97
2019-03-30T14:59:57.029Z,41.13
2019-03-30T15:02:27.148Z,42.50
2019-03-30T15:05:00.647Z,65.07
2019-03-30T15:07:30.642Z,39.17
2019-03-30T15:10:00.365Z,38.93
2019-03-30T15:12:30.376Z,44.60
2019-03-30T15:15:00.097Z,53.20
2019-03-30T15:17:30.634Z,42.70
2019-03-30T15:20:00.428Z,44.63
2019-03-30T15:22:31.686Z,61.43
2019-03-30T15:25:03.250Z,36.93
2019-03-30T15:27:32.998Z,53.33
2019-03-30T15:30:05.534Z,63.40
2019-03-30T15:32:35.479Z,43.87
2019-03-30T15:35:05.612Z,46.87
2019-03-30T15:37:36.519Z,47.47
2019-03-30T15:40:06.790Z,49.63
2019-03-30T15:42:39.889Z,82.57
2019-03-30T15:45:13.840Z,81.70
2019-03-30T15:47:43.591Z,82.40
2019-03-30T15:50:14.170Z,79.20
2019-03-30T15:52:44.923Z,91.60
2019-03-30T15:55:14.950Z,81.47
2019-03-30T15:57:47.315Z,77.03
2019-03-30T16:00:19.099Z,87.60
2019-03-30T16:02:50.844Z,98.43
2019-03-30T16:05:20.575Z,84.07
2019-03-30T16:07:51.013Z,89.63
2019-03-30T16:10:21.243Z,89.60
2019-03-30T16:12:51.985Z,128.13
2019-03-30T16:15:21.572Z,97.97
2019-03-30T16:17:51.237Z,85.00
2019-03-30T16:20:20.873Z,94.97
2019-03-30T16:22:50.757Z,86.33
2019-03-30T16:25:20.417Z,82.80
2019-03-30T16:27:50.869Z,85.60
2019-03-30T16:30:20.530Z,89.37
2019-03-30T16:32:50.326Z,87.93
2019-03-30T16:35:19.976Z,92.53
2019-03-30T16:37:50.058Z,92.73
2019-03-30T16:40:19.646Z,104.83
2019-03-30T16:42:50.510Z,108.67
2019-03-30T16:45:20.318Z,100.17
2019-03-30T16:47:53.518Z,106.73
2019-03-30T16:50:25.483Z,103.27
2019-03-30T16:52:55.526Z,100.33
2019-03-30T16:55:25.383Z,91.03
2019-03-30T16:57:55.115Z,91.87
2019-03-30T17:00:31.228Z,83.27
2019-03-30T17:03:02.990Z,88.87
2019-03-30T17:05:32.751Z,90.90
2019-03-30T17:08:03.267Z,94.37
2019-03-30T17:10:33.077Z,95.00
2019-03-30T17:13:03.387Z,98.03
2019-03-30T17:15:33.093Z,102.97
2019-03-30T17:18:04.439Z,95.67
2019-03-30T17:20:34.066Z,93.60
2019-03-30T17:23:03.730Z,93.07
2019-03-30T17:25:33.806Z,101.73
2019-03-30T17:28:06.767Z,97.87
2019-03-30T17:30:34.820Z,95.23
2019-03-30T17:33:04.927Z,96.10
2019-03-30T17:35:34.564Z,88.57
2019-03-30T17:38:04.229Z,90.03
2019-03-30T17:40:36.533Z,93.23
2019-03-30T17:43:06.324Z,91.50
2019-03-30T17:45:36.532Z,98.00
2019-03-30T17:48:06.369Z,92.93
2019-03-30T17:50:36.094Z,92.37
2019-03-30T17:53:05.744Z,92.53
2019-03-30T17:55:37.002Z,92.77
2019-03-30T17:58:13.243Z,96.97
2019-03-30T18:00:44.351Z,91.43
2019-03-30T18:03:14.044Z,92.90
2019-03-30T18:05:44.584Z,95.33
2019-03-30T18:08:14.240Z,88.63
2019-03-30T18:10:44.271Z,100.53
2019-03-30T18:13:13.949Z,89.43
2019-03-30T18:15:43.595Z,101.57
2019-03-30T18:18:15.538Z,106.10
2019-03-30T18:20:45.256Z,122.30
2019-03-30T18:23:16.687Z,89.50
2019-03-30T18:25:46.357Z,95.63
2019-03-30T18:28:27.362Z,87.60
2019-03-30T18:30:56.281Z,82.13
2019-03-30T18:33:28.617Z,85.63
2019-03-30T18:35:58.418Z,81.03
2019-03-30T18:38:31.806Z,83.27
2019-03-30T18:41:01.462Z,87.53
2019-03-30T18:43:32.467Z,84.87
2019-03-30T18:46:02.158Z,84.37
2019-03-30T18:48:31.881Z,84.70
2019-03-30T18:51:02.467Z,79.80
2019-03-30T18:53:32.218Z,80.77
2019-03-30T18:56:02.154Z,88.77
2019-03-30T18:58:41.584Z,84.63
2019-03-30T19:01:07.436Z,90.10
2019-03-30T19:03:37.532Z,92.50
2019-03-30T19:06:07.250Z,82.37
2019-03-30T19:08:37.004Z,85.20
2019-03-30T19:11:06.765Z,86.43
2019-03-30T19:13:37.258Z,89.30
2019-03-30T19:16:07.097Z,92.07
2019-03-30T19:18:38.858Z,84.67
2019-03-30T19:21:08.698Z,89.50
2019-03-30T19:23:38.439Z,87.27
2019-03-30T19:26:08.110Z,86.57
2019-03-30T19:28:37.901Z,86.73
2019-03-30T19:31:07.705Z,90.67
2019-03-30T19:33:37.449Z,85.27
2019-03-30T19:36:09.930Z,83.97
2019-03-30T19:38:38.580Z,81.10
2019-03-30T19:41:09.719Z,90.47
2019-03-30T19:43:39.401Z,85.17
2019-03-30T19:46:09.878Z,82.53
2019-03-30T19:48:39.577Z,98.17
2019-03-30T19:51:09.311Z,94.60
2019-03-30T19:53:39.584Z,96.73
2019-03-30T19:56:10.043Z,100.10
2019-03-30T19:58:42.342Z,147.43
2019-03-30T20:01:13.409Z,113.13
2019-03-30T20:03:43.123Z,99.50
2019-03-30T20:06:12.814Z,109.73
2019-03-30T20:08:44.680Z,106.60
2019-03-30T20:11:14.714Z,102.83
2019-03-30T20:13:44.411Z,99.33
2019-03-30T20:16:14.170Z,90.83
2019-03-30T20:18:43.850Z,93.10
2019-03-30T20:21:17.423Z,95.33
2019-03-30T20:23:47.083Z,92.80
2019-03-30T20:26:16.889Z,90.13
2019-03-30T20:28:49.117Z,107.50
2019-03-30T20:31:18.766Z,99.87
2019-03-30T20:33:48.926Z,103.63
2019-03-30T20:36:18.898Z,105.80
2019-03-30T20:38:48.581Z,98.30
2019-03-30T20:41:18.227Z,108.50
2019-03-30T20:43:47.923Z,112.77
2019-03-30T20:46:17.632Z,109.00
2019-03-30T20:48:47.262Z,99.33
2019-03-30T20:51:19.017Z,102.60
2019-03-30T20:53:49.015Z,104.23
2019-03-30T20:56:18.889Z,97.43
2019-03-30T20:58:48.577Z,103.27
2019-03-30T21:01:18.263Z,110.03
2019-03-30T21:03:50.305Z,111.83
2019-03-30T21:06:23.187Z,97.50
2019-03-30T21:08:52.920Z,100.80
2019-03-30T21:11:25.193Z,86.30
2019-03-30T21:13:56.750Z,98.33
2019-03-30T21:16:27.760Z,89.63
2019-03-30T21:18:58.106Z,105.70
2019-03-30T21:21:28.162Z,95.40
2019-03-30T21:23:57.817Z,86.73
2019-03-30T21:26:29.816Z,92.80
2019-03-30T21:29:00.547Z,85.87
2019-03-30T21:31:34.840Z,91.63
2019-03-30T21:34:09.689Z,96.73
2019-03-30T21:36:41.602Z,98.43
2019-03-30T21:39:16.206Z,92.60
2019-03-30T21:41:48.193Z,92.03
2019-03-30T21:44:22.165Z,100.17
2019-03-30T21:46:49.389Z,94.83
2019-03-30T21:49:19.103Z,91.77
2019-03-30T21:51:53.543Z,94.87
2019-03-30T21:54:23.187Z,91.73
2019-03-30T21:56:53.851Z,96.67
2019-03-30T21:59:23.519Z,100.20
2019-03-30T22:01:54.221Z,101.30
2019-03-30T22:04:27.355Z,96.73
2019-03-30T22:06:58.590Z,95.00
2019-03-30T22:09:28.362Z,96.70
2019-03-30T22:11:58.079Z,85.87
2019-03-30T22:14:27.741Z,98.63
2019-03-30T22:16:57.792Z,108.37
2019-03-30T22:19:27.454Z,95.93
2019-03-30T22:21:57.499Z,101.37
2019-03-30T22:24:28.758Z,105.27
2019-03-30T22:26:58.511Z,114.37
2019-03-30T22:29:28.460Z,101.97
2019-03-30T22:31:58.192Z,106.57
2019-03-30T22:34:27.903Z,103.20
2019-03-30T22:36:58.000Z,100.60
2019-03-30T22:39:27.658Z,112.47
2019-03-30T22:41:57.320Z,118.27
2019-03-30T22:44:26.982Z,117.40
2019-03-30T22:47:11.842Z,113.93
2019-03-30T22:49:43.812Z,127.87
2019-03-30T22:52:15.203Z,128.23
2019-03-30T22:54:45.847Z,130.43
2019-03-30T22:57:17.883Z,118.90
2019-03-30T22:59:47.878Z,129.47
2019-03-30T23:02:18.587Z,127.63
2019-03-30T23:04:48.669Z,126.80
2019-03-30T23:07:18.401Z,132.37
2019-03-30T23:09:51.244Z,129.43
2019-03-30T23:12:21.219Z,132.67
2019-03-30T23:14:52.269Z,132.83
2019-03-30T23:17:23.651Z,142.93
2019-03-30T23:19:53.311Z,132.73
2019-03-30T23:22:24.870Z,136.50
2019-03-30T23:24:57.399Z,139.10
2019-03-30T23:27:27.517Z,145.37
2019-03-30T23:30:03.461Z,139.97
2019-03-30T23:32:28.843Z,141.20
2019-03-30T23:34:58.860Z,128.70
2019-03-30T23:37:28.624Z,139.83
2019-03-30T23:39:58.186Z,125.87
2019-03-30T23:42:27.825Z,146.70
2019-03-30T23:44:57.740Z,140.53
2019-03-30T23:47:28.594Z,159.77
2019-03-30T23:50:01.543Z,185.07
2019-03-30T23:52:31.232Z,160.80
2019-03-30T23:55:02.094Z,178.70
2019-03-30T23:57:31.732Z,166.77
